Time;durP1;ratioP1;P1;durP2;ratioP2;P2;SDS_P1;SDS_P2;PMS_P1;PMS_P2;Temp;Humidity;BMP_temperature;BMP_pressure;BME280_temperature;BME280_humidity;BME280_pressure;Samples;Min_cycle;Max_cycle;Signal;HPM_P1;HPM_P2
2023/03/21 00:00:18;;;;;;;26.70;18.17;;;9.90;99.90;;;;;;2081682;28;20025;-87
2023/03/21 00:01:19;;;;;;;22.92;17.23;;;9.90;99.90;;;;;;2085298;28;20026;-88
2023/03/21 00:02:19;;;;;;;23.55;17.13;;;9.90;99.90;;;;;;2088413;28;20033;-88
2023/03/21 00:03:20;;;;;;;24.33;16.83;;;9.90;99.90;;;;;;2086964;28;20079;-87
2023/03/21 00:04:22;;;;;;;24.35;17.50;;;9.90;99.90;;;;;;2092408;28;20036;-87
2023/03/21 00:05:23;;;;;;;23.58;17.27;;;9.90;99.90;;;;;;2094516;28;20024;-86
2023/03/21 00:06:26;;;;;;;24.65;17.63;;;10.00;99.90;;;;;;2081773;28;20167;-85
2023/03/21 00:07:27;;;;;;;24.85;17.85;;;9.90;99.90;;;;;;2080897;28;20616;-86
2023/03/21 00:08:27;;;;;;;25.10;17.77;;;10.00;99.90;;;;;;2082440;28;20071;-87
2023/03/21 00:09:28;;;;;;;24.77;16.77;;;9.90;99.90;;;;;;2076072;28;20567;-86
2023/03/21 00:10:28;;;;;;;24.75;17.20;;;9.90;99.90;;;;;;2082500;28;20037;-85
2023/03/21 00:11:29;;;;;;;23.40;16.40;;;10.00;99.90;;;;;;2081549;28;20079;-87
2023/03/21 00:12:31;;;;;;;24.80;17.23;;;10.00;99.90;;;;;;2068224;28;20021;-88
2023/03/21 00:13:33;;;;;;;25.98;18.40;;;10.00;99.90;;;;;;2079835;28;20098;-87
2023/03/21 00:14:33;;;;;;;25.33;18.17;;;10.00;99.90;;;;;;2089518;28;20036;-86
2023/03/21 00:15:37;;;;;;;25.95;18.05;;;10.10;99.90;;;;;;2089343;28;20578;-88
2023/03/21 00:16:40;;;;;;;28.55;18.67;;;10.00;99.90;;;;;;2089206;28;20040;-86
2023/03/21 00:17:43;;;;;;;27.15;19.13;;;10.10;99.90;;;;;;2091305;28;20025;-86
2023/03/21 00:18:51;;;;;;;30.38;21.52;;;10.10;99.90;;;;;;2086103;28;20112;-86
2023/03/21 00:19:53;;;;;;;30.35;21.13;;;10.10;99.90;;;;;;2092302;28;20054;-86
2023/03/21 00:21:00;;;;;;;30.67;20.40;;;10.10;99.90;;;;;;2084351;28;20862;-84
2023/03/21 00:22:01;;;;;;;30.02;20.63;;;10.20;99.90;;;;;;2092994;28;20036;-87
2023/03/21 00:23:02;;;;;;;32.08;21.92;;;10.10;99.90;;;;;;2103362;28;20688;-87
2023/03/21 00:24:05;;;;;;;32.03;20.67;;;10.10;99.90;;;;;;2094147;28;20030;-88
2023/03/21 00:25:07;;;;;;;30.75;21.38;;;10.10;99.90;;;;;;2092568;28;20056;-86
2023/03/21 00:26:09;;;;;;;30.90;21.40;;;10.10;99.90;;;;;;2096585;28;20526;-85
2023/03/21 00:27:09;;;;;;;28.08;20.48;;;10.10;99.90;;;;;;2102911;28;20151;-86
2023/03/21 00:28:10;;;;;;;27.25;19.40;;;10.10;99.90;;;;;;2101414;28;20084;-85
2023/03/21 00:29:10;;;;;;;30.85;20.98;;;10.10;99.90;;;;;;2100640;28;20013;-84
2023/03/21 00:30:11;;;;;;;30.95;21.15;;;10.10;99.90;;;;;;2098560;28;20045;-85
2023/03/21 00:31:12;;;;;;;34.75;22.55;;;10.10;99.90;;;;;;2084828;28;20056;-84
2023/03/21 00:32:13;;;;;;;30.48;20.67;;;10.00;99.90;;;;;;2096760;28;20054;-83
2023/03/21 00:33:14;;;;;;;30.80;21.20;;;10.00;99.90;;;;;;2092421;28;20439;-80
2023/03/21 00:34:15;;;;;;;31.33;21.40;;;10.10;99.90;;;;;;2088431;28;20311;-84
2023/03/21 00:35:15;;;;;;;33.63;22.65;;;10.00;99.90;;;;;;2087852;28;20040;-84
2023/03/21 00:36:16;;;;;;;35.92;23.00;;;10.00;99.90;;;;;;2083298;28;20124;-81
2023/03/21 00:37:17;;;;;;;31.88;21.73;;;10.00;99.90;;;;;;2086141;28;20419;-82
2023/03/21 00:38:20;;;;;;;32.60;22.27;;;10.00;99.90;;;;;;2092990;28;20209;-84
2023/03/21 00:39:21;;;;;;;30.83;20.98;;;9.90;99.90;;;;;;2083418;28;20085;-82
2023/03/21 00:40:21;;;;;;;31.33;20.73;;;9.90;99.90;;;;;;2088179;28;20061;-84
2023/03/21 00:41:22;;;;;;;30.60;21.05;;;9.90;99.90;;;;;;2097098;28;20050;-85
2023/03/21 00:42:23;;;;;;;33.03;22.90;;;9.90;99.90;;;;;;2104801;28;20036;-85
2023/03/21 00:43:28;;;;;;;34.78;23.65;;;9.90;99.90;;;;;;2086421;28;20514;-84
2023/03/21 00:44:31;;;;;;;33.50;22.05;;;9.80;99.90;;;;;;2080907;28;20030;-87
2023/03/21 00:45:31;;;;;;;34.85;22.50;;;9.80;99.90;;;;;;2080900;28;20025;-87
2023/03/21 00:46:40;;;;;;;32.47;21.63;;;9.90;99.90;;;;;;2091636;28;20099;-83
2023/03/21 00:47:40;;;;;;;31.50;21.75;;;9.80;99.90;;;;;;2090302;28;20029;-84
2023/03/21 00:48:41;;;;;;;36.15;23.75;;;9.80;99.90;;;;;;2086486;28;20075;-84
2023/03/21 00:49:42;;;;;;;38.15;25.23;;;9.80;99.90;;;;;;2069966;28;20056;-83
2023/03/21 00:50:45;;;;;;;36.38;23.92;;;9.80;99.90;;;;;;2082258;28;20029;-86
2023/03/21 00:51:50;;;;;;;40.08;26.33;;;9.80;99.90;;;;;;2101489;28;20028;-84
2023/03/21 00:52:50;;;;;;;39.33;25.17;;;9.80;99.90;;;;;;2084078;28;20029;-84
2023/03/21 00:53:56;;;;;;;37.85;24.80;;;9.80;99.90;;;;;;2083286;28;20035;-83
2023/03/21 00:54:56;;;;;;;37.20;24.25;;;9.70;99.90;;;;;;2076091;28;20275;-85
2023/03/21 00:55:57;;;;;;;36.80;24.70;;;9.80;99.90;;;;;;2078480;28;20059;-85
2023/03/21 00:56:58;;;;;;;35.60;24.33;;;9.70;99.90;;;;;;2085287;28;20052;-85
2023/03/21 00:57:59;;;;;;;34.28;23.73;;;9.70;99.90;;;;;;2075275;28;20487;-85
2023/03/21 00:59:00;;;;;;;34.85;23.80;;;9.70;99.90;;;;;;2082084;28;20075;-86
2023/03/21 01:00:00;;;;;;;37.13;24.25;;;9.70;99.90;;;;;;2075494;28;20472;-83
2023/03/21 01:01:01;;;;;;;39.97;26.30;;;9.70;99.90;;;;;;2062412;28;20577;-86
2023/03/21 01:02:06;;;;;;;38.30;25.92;;;9.70;99.90;;;;;;2073175;28;20030;-85
2023/03/21 01:03:09;;;;;;;37.25;24.52;;;9.70;99.90;;;;;;2071838;28;20450;-84
2023/03/21 01:04:13;;;;;;;37.83;25.30;;;9.70;99.90;;;;;;2089434;28;20033;-84
2023/03/21 01:06:00;;;;;;;37.80;25.67;;;9.70;99.90;;;;;;2089483;28;20048;-86
2023/03/21 01:06:39;;;;;;;36.40;24.60;;;9.70;99.90;;;;;;2079074;28;20038;-77
2023/03/21 01:07:40;;;;;;;36.53;23.45;;;9.70;99.90;;;;;;2090849;28;20148;-77
2023/03/21 01:08:42;;;;;;;43.67;27.40;;;9.70;99.90;;;;;;2093796;28;20713;-77
2023/03/21 01:09:43;;;;;;;42.80;27.38;;;9.70;99.90;;;;;;2088405;28;20525;-76
2023/03/21 01:10:46;;;;;;;39.33;26.20;;;9.60;99.90;;;;;;2084686;28;20074;-76
2023/03/21 01:11:47;;;;;;;38.10;25.50;;;9.60;99.90;;;;;;2078158;28;20029;-77
2023/03/21 01:12:47;;;;;;;37.80;25.52;;;9.70;99.90;;;;;;2077924;28;20072;-77
2023/03/21 01:13:52;;;;;;;38.13;26.02;;;9.60;99.90;;;;;;2089273;28;20024;-78
2023/03/21 01:14:52;;;;;;;39.10;26.35;;;9.60;99.90;;;;;;2086883;28;20039;-77
2023/03/21 01:15:55;;;;;;;40.45;26.00;;;9.60;99.90;;;;;;2092707;28;20029;-77
2023/03/21 01:16:56;;;;;;;37.08;24.83;;;9.60;99.90;;;;;;2086615;28;20087;-83
2023/03/21 01:17:57;;;;;;;37.10;24.98;;;9.60;99.90;;;;;;2089405;28;20035;-83
2023/03/21 01:18:58;;;;;;;40.08;26.58;;;9.60;99.90;;;;;;2079712;28;20159;-82
2023/03/21 01:19:59;;;;;;;40.28;26.35;;;9.60;99.90;;;;;;2076579;28;20039;-82
2023/03/21 01:21:00;;;;;;;41.72;26.95;;;9.50;99.90;;;;;;2073607;28;20028;-83
2023/03/21 01:22:01;;;;;;;44.92;29.05;;;9.60;99.90;;;;;;2070035;28;20026;-82
2023/03/21 01:23:01;;;;;;;49.88;31.40;;;9.50;99.90;;;;;;2081786;28;20567;-82
2023/03/21 01:24:02;;;;;;;43.25;28.73;;;9.50;99.90;;;;;;2084521;28;20171;-82
2023/03/21 01:25:03;;;;;;;41.38;27.55;;;9.50;99.90;;;;;;2083103;28;20499;-82
2023/03/21 01:26:04;;;;;;;39.95;26.73;;;9.50;99.90;;;;;;2099241;28;20032;-82
2023/03/21 01:27:05;;;;;;;38.33;26.33;;;9.50;99.90;;;;;;2094751;28;20379;-82
2023/03/21 01:28:07;;;;;;;39.90;26.52;;;9.50;99.90;;;;;;2093033;28;20033;-82
2023/03/21 01:29:07;;;;;;;40.05;27.17;;;9.50;99.90;;;;;;2086952;28;20602;-83
2023/03/21 01:30:10;;;;;;;41.63;27.55;;;9.50;99.90;;;;;;2077450;28;20029;-83
2023/03/21 01:31:14;;;;;;;42.97;28.80;;;9.50;99.90;;;;;;2091031;28;20021;-83
2023/03/21 01:32:15;;;;;;;41.72;27.73;;;9.50;99.90;;;;;;2093008;28;20070;-83
2023/03/21 01:33:17;;;;;;;46.95;29.83;;;9.50;99.90;;;;;;2093354;28;20100;-82
2023/03/21 01:34:18;;;;;;;42.20;28.45;;;9.50;99.90;;;;;;2078416;28;20055;-83
2023/03/21 01:35:18;;;;;;;43.53;28.60;;;9.50;99.90;;;;;;2090590;28;20574;-83
2023/03/21 01:36:22;;;;;;;41.45;28.08;;;9.50;99.90;;;;;;2085912;28;20033;-82
2023/03/21 01:37:25;;;;;;;40.90;27.60;;;9.50;99.90;;;;;;2091050;28;20033;-82
2023/03/21 01:38:26;;;;;;;39.83;26.20;;;9.50;99.90;;;;;;2091957;28;20465;-83
2023/03/21 01:39:27;;;;;;;39.72;26.42;;;9.50;99.90;;;;;;2091598;28;20024;-83
2023/03/21 01:40:29;;;;;;;41.13;27.40;;;9.50;99.90;;;;;;2086123;28;20057;-82
2023/03/21 01:41:41;;;;;;;40.80;26.92;;;9.50;99.90;;;;;;2081243;28;20594;-83
2023/03/21 01:42:48;;;;;;;41.15;27.60;;;9.40;99.90;;;;;;2089923;28;20047;-83
2023/03/21 01:43:52;;;;;;;41.25;27.00;;;9.40;99.90;;;;;;2079949;28;20118;-83
2023/03/21 01:45:02;;;;;;;39.80;26.88;;;9.50;99.90;;;;;;2081489;28;20074;-83
2023/03/21 01:46:56;;;;;;;38.13;25.95;;;9.40;99.90;;;;;;2079469;28;20020;-83
2023/03/21 01:48:27;;;;;;;38.70;24.90;;;9.40;99.90;;;;;;2048410;28;20046;-83
2023/03/21 01:49:37;;;;;;;40.65;26.27;;;9.40;99.90;;;;;;2053122;28;20107;-83
2023/03/21 01:51:03;;;;;;;40.38;26.60;;;9.40;99.90;;;;;;2043343;28;20027;-82
2023/03/21 01:52:15;;;;;;;40.50;26.00;;;9.40;99.90;;;;;;2040218;29;20612;-82
2023/03/21 01:53:19;;;;;;;40.72;26.80;;;9.40;99.90;;;;;;2036361;28;20039;-82
2023/03/21 01:54:26;;;;;;;40.70;26.15;;;9.30;99.90;;;;;;2077302;28;20486;-83
2023/03/21 01:55:27;;;;;;;41.40;26.52;;;9.30;99.90;;;;;;2074839;28;20124;-81
2023/03/21 01:56:37;;;;;;;41.20;26.90;;;9.30;99.90;;;;;;2079886;28;20045;-81
2023/03/21 01:57:52;;;;;;;43.25;28.17;;;9.30;99.90;;;;;;2080034;28;20032;-82
2023/03/21 01:59:02;;;;;;;42.58;27.77;;;9.40;99.90;;;;;;2082388;28;20028;-82
2023/03/21 02:00:28;;;;;;;39.80;26.98;;;9.30;99.90;;;;;;2076669;28;20575;-82
2023/03/21 02:01:41;;;;;;;43.33;28.15;;;9.30;99.90;;;;;;2088609;28;20033;-83
2023/03/21 02:02:54;;;;;;;46.38;28.83;;;9.30;99.90;;;;;;2079708;28;20022;-83
2023/03/21 02:04:10;;;;;;;43.33;28.60;;;9.30;99.90;;;;;;2085376;28;20028;-83
2023/03/21 02:05:21;;;;;;;43.33;28.33;;;9.30;99.90;;;;;;2090722;28;20365;-83
2023/03/21 02:06:35;;;;;;;43.60;28.40;;;9.30;99.90;;;;;;2097309;28;20565;-83
2023/03/21 02:07:47;;;;;;;44.40;28.20;;;9.30;99.90;;;;;;2084222;28;20085;-82
2023/03/21 02:08:52;;;;;;;47.47;30.02;;;9.30;99.90;;;;;;2078532;28;20031;-83
2023/03/21 02:09:53;;;;;;;44.55;28.85;;;9.30;99.90;;;;;;2087481;28;20056;-82
2023/03/21 02:10:57;;;;;;;43.70;28.80;;;9.30;99.90;;;;;;2078590;28;20546;-82
2023/03/21 02:12:10;;;;;;;44.40;27.58;;;9.30;99.90;;;;;;2078186;28;20660;-82
2023/03/21 02:13:11;;;;;;;43.15;27.95;;;9.30;99.90;;;;;;2072646;28;20029;-82
2023/03/21 02:14:16;;;;;;;41.10;27.30;;;9.30;99.90;;;;;;2084339;28;20503;-82
2023/03/21 02:15:27;;;;;;;39.53;26.30;;;9.30;99.90;;;;;;2072403;28;20451;-82
2023/03/21 02:16:48;;;;;;;43.53;28.65;;;9.20;99.90;;;;;;2088268;28;20024;-82
2023/03/21 02:18:00;;;;;;;41.42;27.80;;;9.20;99.90;;;;;;2090640;28;22806;-82
2023/03/21 02:19:23;;;;;;;41.53;27.42;;;9.20;99.90;;;;;;2087288;28;20032;-82
2023/03/21 02:20:43;;;;;;;42.75;27.75;;;9.20;99.90;;;;;;2075579;28;20076;-85
2023/03/21 02:22:12;;;;;;;42.08;27.38;;;9.30;99.90;;;;;;2079838;28;20029;-73
2023/03/21 02:23:52;;;;;;;41.05;26.15;;;9.30;99.90;;;;;;2075517;28;20028;-78
2023/03/21 02:24:53;;;;;;;41.95;26.42;;;9.30;99.90;;;;;;2079436;28;20067;-76
2023/03/21 02:26:33;;;;;;;40.60;26.25;;;9.30;99.90;;;;;;2080099;28;20036;-76
2023/03/21 02:28:02;;;;;;;44.05;27.98;;;9.30;99.90;;;;;;2091892;28;20020;-75
2023/03/21 02:29:26;;;;;;;45.85;29.17;;;9.20;99.90;;;;;;2081502;28;20225;-76
2023/03/21 02:30:41;;;;;;;41.90;27.05;;;9.20;99.90;;;;;;2085274;28;20073;-76
2023/03/21 02:31:57;;;;;;;47.65;30.35;;;9.20;99.90;;;;;;2084440;28;20033;-75
2023/03/21 02:33:28;;;;;;;48.00;30.17;;;9.10;99.90;;;;;;2075817;28;20052;-75
2023/03/21 02:34:57;;;;;;;44.13;28.85;;;9.10;99.90;;;;;;2079539;28;20020;-76
2023/03/21 02:36:14;;;;;;;44.03;28.60;;;9.00;99.90;;;;;;2071487;28;20033;-76
2023/03/21 02:37:20;;;;;;;42.65;28.45;;;9.00;99.90;;;;;;2084265;28;20115;-76
2023/03/21 02:38:32;;;;;;;42.97;28.27;;;9.00;99.90;;;;;;2082400;28;20071;-76
2023/03/21 02:40:13;;;;;;;39.38;26.35;;;9.00;99.90;;;;;;2067975;28;20504;-76
2023/03/21 02:41:35;;;;;;;38.90;26.50;;;9.10;99.90;;;;;;2084693;28;20800;-75
2023/03/21 02:42:59;;;;;;;46.53;30.38;;;9.00;99.90;;;;;;2077759;28;20488;-76
2023/03/21 02:44:15;;;;;;;43.30;29.58;;;9.00;99.90;;;;;;2073128;28;20032;-75
2023/03/21 02:45:22;;;;;;;43.75;29.13;;;9.00;99.90;;;;;;2087732;28;20187;-74
2023/03/21 02:46:56;;;;;;;40.13;27.60;;;9.00;99.90;;;;;;2080098;28;20036;-77
2023/03/21 02:48:03;;;;;;;42.28;29.23;;;9.00;99.90;;;;;;2083071;28;20028;-77
2023/03/21 02:49:23;;;;;;;40.45;28.35;;;9.00;99.90;;;;;;2082796;28;20357;-77
2023/03/21 02:50:41;;;;;;;42.80;29.73;;;9.00;99.90;;;;;;2076523;28;20524;-77
2023/03/21 02:51:43;;;;;;;43.17;29.77;;;9.00;99.90;;;;;;2079591;28;20039;-76
2023/03/21 02:52:47;;;;;;;47.50;31.45;;;9.00;99.90;;;;;;2069489;28;20092;-76
2023/03/21 02:53:53;;;;;;;43.00;29.05;;;9.00;99.90;;;;;;2074286;28;20555;-77
2023/03/21 02:54:57;;;;;;;45.83;31.30;;;9.00;99.90;;;;;;2082426;28;20363;-76
2023/03/21 02:56:09;;;;;;;46.58;30.40;;;9.00;99.90;;;;;;2077722;28;20040;-76
2023/03/21 02:57:11;;;;;;;45.67;31.75;;;8.90;99.90;;;;;;2082853;28;20658;-76
2023/03/21 02:58:17;;;;;;;43.28;31.40;;;8.90;99.90;;;;;;2089567;28;20028;-75
2023/03/21 02:59:25;;;;;;;43.35;30.17;;;8.90;99.90;;;;;;2077636;28;20103;-75
2023/03/21 03:00:32;;;;;;;46.40;31.65;;;8.90;99.90;;;;;;2069745;28;20030;-75
2023/03/21 03:01:33;;;;;;;45.35;31.13;;;8.90;99.90;;;;;;2084981;28;20029;-75
2023/03/21 03:02:35;;;;;;;46.15;30.52;;;8.90;99.90;;;;;;2076956;28;20029;-74
2023/03/21 03:03:38;;;;;;;45.50;31.20;;;8.80;99.90;;;;;;2071060;28;20119;-75
2023/03/21 03:04:38;;;;;;;42.47;29.83;;;8.80;99.90;;;;;;2074337;28;20037;-75
2023/03/21 03:05:46;;;;;;;46.53;32.00;;;8.80;99.90;;;;;;2076810;28;20520;-75
2023/03/21 03:07:04;;;;;;;42.67;29.23;;;8.80;99.90;;;;;;2078123;28;20154;-75
2023/03/21 03:08:13;;;;;;;44.45;30.17;;;8.80;99.90;;;;;;2085225;28;20039;-75
2023/03/21 03:09:37;;;;;;;44.85;30.15;;;8.80;99.90;;;;;;2077523;28;20051;-75
2023/03/21 03:11:15;;;;;;;45.60;31.08;;;8.80;99.90;;;;;;2080668;28;20036;-75
2023/03/21 03:12:32;;;;;;;44.10;30.00;;;8.70;99.90;;;;;;2084373;28;20535;-76
2023/03/21 03:14:08;;;;;;;42.67;28.75;;;8.70;99.90;;;;;;2088872;28;20033;-75
2023/03/21 03:15:32;;;;;;;39.40;27.70;;;8.70;99.90;;;;;;2088723;28;20036;-76
2023/03/21 03:16:51;;;;;;;41.53;29.10;;;8.70;99.90;;;;;;2092093;28;20021;-76
2023/03/21 03:18:27;;;;;;;42.75;29.67;;;8.70;99.90;;;;;;2083943;28;20240;-75
2023/03/21 03:19:31;;;;;;;41.45;28.95;;;8.60;99.90;;;;;;2085820;28;20085;-75
2023/03/21 03:20:54;;;;;;;41.75;30.35;;;8.60;99.90;;;;;;2089693;28;20067;-75
2023/03/21 03:22:05;;;;;;;45.75;30.70;;;8.60;99.90;;;;;;2084548;28;20570;-75
2023/03/21 03:23:23;;;;;;;45.83;31.05;;;8.60;99.90;;;;;;2085520;28;20063;-75
2023/03/21 03:24:32;;;;;;;42.78;30.13;;;8.50;99.90;;;;;;2075464;28;20029;-75
2023/03/21 03:25:41;;;;;;;44.92;31.20;;;8.50;99.90;;;;;;2075703;28;20519;-75
2023/03/21 03:26:49;;;;;;;42.67;29.25;;;8.50;99.90;;;;;;2082746;28;20033;-75
2023/03/21 03:27:52;;;;;;;43.75;30.15;;;8.50;99.90;;;;;;2086956;28;20055;-75
2023/03/21 03:28:58;;;;;;;45.75;31.13;;;8.60;99.90;;;;;;2089929;28;20556;-75
2023/03/21 03:30:00;;;;;;;45.92;31.33;;;8.60;99.90;;;;;;2069493;28;20194;-74
2023/03/21 03:31:03;;;;;;;42.17;29.00;;;8.60;99.90;;;;;;2069132;28;20029;-75
2023/03/21 03:32:16;;;;;;;48.78;33.45;;;8.60;99.90;;;;;;2066071;28;20109;-75
2023/03/21 03:33:22;;;;;;;43.80;30.67;;;8.60;99.90;;;;;;2071132;28;20144;-74
2023/03/21 03:34:28;;;;;;;42.88;29.88;;;8.60;99.90;;;;;;2082319;28;20538;-74
2023/03/21 03:35:29;;;;;;;40.30;29.27;;;8.60;99.90;;;;;;2089802;28;20066;-75
2023/03/21 03:36:38;;;;;;;41.17;29.30;;;8.60;99.90;;;;;;2079574;28;20191;-76
2023/03/21 03:37:50;;;;;;;42.22;29.52;;;8.60;99.90;;;;;;2083069;28;20029;-76
2023/03/21 03:38:52;;;;;;;41.83;28.98;;;8.60;99.90;;;;;;2085104;28;20032;-76
2023/03/21 03:40:00;;;;;;;42.42;30.70;;;8.60;99.90;;;;;;2077288;28;20140;-75
2023/03/21 03:41:08;;;;;;;41.50;30.08;;;8.50;99.90;;;;;;2073944;28;20026;-75
2023/03/21 03:42:21;;;;;;;41.55;29.88;;;8.50;99.90;;;;;;2088428;28;20576;-75
2023/03/21 03:43:35;;;;;;;41.42;29.27;;;8.50;99.90;;;;;;2090162;28;20035;-76
2023/03/21 03:44:36;;;;;;;39.60;28.85;;;8.50;99.90;;;;;;2085412;28;20528;-76
2023/03/21 03:45:46;;;;;;;39.08;28.17;;;8.50;99.90;;;;;;2089716;28;20028;-76
2023/03/21 03:46:56;;;;;;;42.75;30.50;;;8.50;99.90;;;;;;2089892;28;20025;-76
2023/03/21 03:48:07;;;;;;;43.00;30.60;;;8.50;99.90;;;;;;2078947;28;20399;-76
2023/03/21 03:49:20;;;;;;;43.10;30.02;;;8.50;99.90;;;;;;2071864;28;20032;-76
2023/03/21 03:50:32;;;;;;;43.88;30.42;;;8.50;99.90;;;;;;2071363;28;20106;-76
2023/03/21 03:51:47;;;;;;;41.78;29.00;;;8.50;99.90;;;;;;2086892;28;20117;-76
2023/03/21 03:53:22;;;;;;;42.75;28.52;;;8.50;99.90;;;;;;2090958;28;20028;-76
2023/03/21 03:54:48;;;;;;;41.58;28.75;;;8.50;99.90;;;;;;2082548;28;20017;-77
2023/03/21 03:55:53;;;;;;;45.13;31.08;;;8.50;99.90;;;;;;2087839;28;20107;-76
2023/03/21 03:56:55;;;;;;;46.75;31.00;;;8.50;99.90;;;;;;2076403;28;20064;-76
2023/03/21 03:57:56;;;;;;;46.70;31.48;;;8.50;99.90;;;;;;2090091;28;20097;-76
2023/03/21 03:58:57;;;;;;;45.38;31.20;;;8.50;99.90;;;;;;2087176;28;20109;-75
2023/03/21 04:00:14;;;;;;;48.85;31.35;;;8.50;99.90;;;;;;2081752;28;20040;-75
2023/03/21 04:01:17;;;;;;;45.45;31.52;;;8.50;99.90;;;;;;2090947;28;20281;-75
2023/03/21 04:02:19;;;;;;;45.83;31.27;;;8.50;99.90;;;;;;2098196;28;20081;-75
2023/03/21 04:03:20;;;;;;;44.33;30.42;;;8.50;99.90;;;;;;2088153;28;20025;-75
2023/03/21 04:04:28;;;;;;;45.47;31.55;;;8.40;99.90;;;;;;2083730;28;20029;-75
2023/03/21 04:05:29;;;;;;;44.08;30.48;;;8.40;99.90;;;;;;2076998;28;20223;-75
2023/03/21 04:06:31;;;;;;;46.38;32.08;;;8.40;99.90;;;;;;2070815;28;20478;-75
2023/03/21 04:07:31;;;;;;;44.20;31.85;;;8.40;99.90;;;;;;2071351;28;20076;-75
2023/03/21 04:08:36;;;;;;;47.17;31.33;;;8.40;99.90;;;;;;2083566;28;20036;-75
2023/03/21 04:09:37;;;;;;;46.78;31.95;;;8.40;99.90;;;;;;2072669;28;20124;-74
2023/03/21 04:10:38;;;;;;;45.90;31.33;;;8.40;99.90;;;;;;2072426;28;20026;-75
2023/03/21 04:11:39;;;;;;;44.70;31.00;;;8.40;99.90;;;;;;2076184;28;20040;-75
2023/03/21 04:12:39;;;;;;;45.35;31.08;;;8.40;99.90;;;;;;2072810;28;20053;-74
2023/03/21 04:13:51;;;;;;;47.05;32.05;;;8.40;99.90;;;;;;2069138;28;20117;-75
2023/03/21 04:14:55;;;;;;;45.65;31.63;;;8.40;99.90;;;;;;2069011;28;20104;-76
2023/03/21 04:15:56;;;;;;;47.22;32.20;;;8.40;99.90;;;;;;2067096;28;20651;-76
2023/03/21 04:16:57;;;;;;;44.33;31.70;;;8.50;99.90;;;;;;2073949;28;20385;-75
2023/03/21 04:17:58;;;;;;;50.10;33.15;;;8.50;99.90;;;;;;2080869;28;20025;-76
2023/03/21 04:18:58;;;;;;;48.75;32.47;;;8.50;99.90;;;;;;2088886;28;20086;-74
2023/03/21 04:19:59;;;;;;;49.45;32.90;;;8.50;99.90;;;;;;2083288;28;20025;-75
2023/03/21 04:21:00;;;;;;;47.05;32.25;;;8.50;99.90;;;;;;2082179;28;20237;-74
2023/03/21 04:22:03;;;;;;;48.33;32.78;;;8.40;99.90;;;;;;2083354;28;20537;-77
2023/03/21 04:23:06;;;;;;;47.15;32.55;;;8.40;99.90;;;;;;2089122;28;20029;-74
2023/03/21 04:24:07;;;;;;;44.95;31.08;;;8.40;99.90;;;;;;2080286;28;20029;-76
2023/03/21 04:25:08;;;;;;;47.75;32.25;;;8.40;99.90;;;;;;2095177;28;20024;-75
2023/03/21 04:26:09;;;;;;;47.97;33.25;;;8.40;99.90;;;;;;2083003;28;20186;-74
2023/03/21 04:27:17;;;;;;;47.85;32.25;;;8.40;99.90;;;;;;2084767;28;20044;-75
2023/03/21 04:28:36;;;;;;;48.67;32.22;;;8.40;99.90;;;;;;2081454;28;20033;-75
2023/03/21 04:29:55;;;;;;;45.92;31.38;;;8.40;99.90;;;;;;2085068;28;20028;-75
2023/03/21 04:31:12;;;;;;;46.80;31.80;;;8.40;99.90;;;;;;2081372;28;20483;-76
2023/03/21 04:32:23;;;;;;;46.95;32.45;;;8.40;99.90;;;;;;2082301;28;20085;-76
2023/03/21 04:33:30;;;;;;;47.17;32.25;;;8.40;99.90;;;;;;2079649;28;20099;-75
2023/03/21 04:34:31;;;;;;;46.25;31.98;;;8.40;99.90;;;;;;2072997;28;20056;-76
2023/03/21 04:35:35;;;;;;;47.20;32.60;;;8.40;99.90;;;;;;2070599;28;20029;-75
2023/03/21 04:36:38;;;;;;;47.67;32.95;;;8.40;99.90;;;;;;2081401;28;20953;-76
2023/03/21 04:37:40;;;;;;;48.88;32.72;;;8.40;99.90;;;;;;2071563;28;20619;-76
2023/03/21 04:38:47;;;;;;;49.30;32.35;;;8.40;99.90;;;;;;2067623;28;20061;-76
2023/03/21 04:39:50;;;;;;;45.85;31.58;;;8.40;99.90;;;;;;2073879;28;20049;-76
2023/03/21 04:40:51;;;;;;;46.40;31.67;;;8.40;99.90;;;;;;2083007;28;20033;-76
2023/03/21 04:41:52;;;;;;;50.42;33.50;;;8.40;99.90;;;;;;2078408;28;20028;-77
2023/03/21 04:42:52;;;;;;;48.97;33.53;;;8.40;99.90;;;;;;2086511;28;20444;-76
2023/03/21 04:43:54;;;;;;;47.00;32.85;;;8.40;99.90;;;;;;2085074;28;20017;-77
2023/03/21 04:44:55;;;;;;;47.35;33.08;;;8.40;99.90;;;;;;2064415;28;20029;-77
2023/03/21 04:45:57;;;;;;;51.30;33.50;;;8.40;99.90;;;;;;2067437;28;20025;-77
2023/03/21 04:46:58;;;;;;;47.20;32.70;;;8.40;99.90;;;;;;2068261;28;20084;-77
2023/03/21 04:47:59;;;;;;;49.67;33.72;;;8.40;99.90;;;;;;2079120;28;20050;-77
2023/03/21 04:49:00;;;;;;;48.65;33.08;;;8.40;99.90;;;;;;2068510;28;20025;-77
2023/03/21 04:50:00;;;;;;;50.60;33.97;;;8.40;99.90;;;;;;2072253;28;20078;-76
2023/03/21 04:51:01;;;;;;;47.83;33.58;;;8.40;99.90;;;;;;2086497;28;20502;-76
2023/03/21 04:52:02;;;;;;;49.35;34.25;;;8.40;99.90;;;;;;2083608;28;20028;-76
2023/03/21 04:53:03;;;;;;;49.33;33.83;;;8.40;99.90;;;;;;2081126;28;20072;-76
2023/03/21 04:54:04;;;;;;;48.13;33.28;;;8.40;99.90;;;;;;2088128;28;20467;-75
2023/03/21 04:55:08;;;;;;;48.60;33.05;;;8.40;99.90;;;;;;2080812;28;20039;-77
2023/03/21 04:56:10;;;;;;;47.85;33.25;;;8.40;99.90;;;;;;2077121;28;20029;-76
2023/03/21 04:57:11;;;;;;;48.63;33.00;;;8.40;99.90;;;;;;2079696;28;20029;-75
2023/03/21 04:58:12;;;;;;;49.90;34.17;;;8.40;99.90;;;;;;2088472;28;20060;-75
2023/03/21 04:59:14;;;;;;;49.22;34.17;;;8.40;99.90;;;;;;2095120;28;20035;-76
2023/03/21 05:00:15;;;;;;;51.28;34.50;;;8.50;99.90;;;;;;2085463;28;20036;-75
2023/03/21 05:01:19;;;;;;;49.03;33.45;;;8.50;99.90;;;;;;2075079;28;20090;-75
2023/03/21 05:02:20;;;;;;;49.28;33.20;;;8.40;99.90;;;;;;2081535;28;20026;-76
2023/03/21 05:03:20;;;;;;;46.92;32.72;;;8.50;99.90;;;;;;2078927;28;20037;-75
2023/03/21 05:04:22;;;;;;;56.47;36.63;;;8.50;99.90;;;;;;2086724;28;20134;-75
2023/03/21 05:05:23;;;;;;;54.90;35.83;;;8.50;99.90;;;;;;2077747;28;20122;-75
2023/03/21 05:06:26;;;;;;;54.42;35.75;;;8.50;99.90;;;;;;2080497;28;20111;-75
2023/03/21 05:07:27;;;;;;;52.17;34.10;;;8.50;99.90;;;;;;2097490;28;20044;-75
2023/03/21 05:08:28;;;;;;;58.08;38.28;;;8.40;99.90;;;;;;2078388;28;20053;-75
2023/03/21 05:09:29;;;;;;;54.88;36.33;;;8.40;99.90;;;;;;2078163;28;20526;-75
2023/03/21 05:10:30;;;;;;;51.05;33.88;;;8.40;99.90;;;;;;2077316;28;20511;-74
2023/03/21 05:11:34;;;;;;;52.60;36.05;;;8.40;99.90;;;;;;2084929;28;20735;-76
2023/03/21 05:12:35;;;;;;;51.83;35.05;;;8.40;99.90;;;;;;2069060;28;20029;-75
2023/03/21 05:13:36;;;;;;;51.00;34.03;;;8.40;99.90;;;;;;2072138;28;20033;-77
2023/03/21 05:14:37;;;;;;;50.42;34.55;;;8.50;99.90;;;;;;2077447;28;20036;-76
2023/03/21 05:15:39;;;;;;;50.17;33.47;;;8.50;99.90;;;;;;2082541;28;20182;-76
2023/03/21 05:16:47;;;;;;;50.47;33.65;;;8.50;99.90;;;;;;2080288;28;20029;-74
2023/03/21 05:17:49;;;;;;;49.47;33.00;;;8.50;99.90;;;;;;2077106;28;20094;-74
2023/03/21 05:18:51;;;;;;;49.30;33.53;;;8.50;99.90;;;;;;2085671;28;20037;-74
2023/03/21 05:19:55;;;;;;;51.25;34.28;;;8.50;99.90;;;;;;2078921;28;20030;-74
2023/03/21 05:20:56;;;;;;;50.50;33.65;;;8.50;99.90;;;;;;2091422;28;20037;-75
2023/03/21 05:21:57;;;;;;;53.67;34.65;;;8.50;99.90;;;;;;2082818;28;20043;-74
2023/03/21 05:23:00;;;;;;;49.53;33.22;;;8.50;99.90;;;;;;2074757;28;20022;-74
2023/03/21 05:24:02;;;;;;;47.50;32.10;;;8.50;99.90;;;;;;2086007;28;20078;-74
2023/03/21 05:25:05;;;;;;;46.92;31.55;;;8.50;99.90;;;;;;2090917;28;20025;-74
2023/03/21 05:26:20;;;;;;;47.75;31.13;;;8.50;99.90;;;;;;2076077;28;20029;-73
2023/03/21 05:27:35;;;;;;;50.00;32.05;;;8.50;99.90;;;;;;2085815;28;20029;-74
2023/03/21 05:28:43;;;;;;;46.53;31.23;;;8.50;99.90;;;;;;2082095;28;20048;-75
2023/03/21 05:29:45;;;;;;;48.33;31.77;;;8.50;99.90;;;;;;2079995;28;20025;-73
2023/03/21 05:30:45;;;;;;;49.30;31.42;;;8.50;99.90;;;;;;2092820;28;20029;-74
2023/03/21 05:31:46;;;;;;;44.40;30.13;;;8.50;99.90;;;;;;2082343;28;21130;-74
2023/03/21 05:32:49;;;;;;;48.20;31.83;;;8.50;99.90;;;;;;2082366;28;20025;-73
2023/03/21 05:33:50;;;;;;;48.33;30.60;;;8.50;99.90;;;;;;2082680;28;20199;-72
2023/03/21 05:34:52;;;;;;;43.58;29.35;;;8.50;99.90;;;;;;2082705;28;20052;-77
2023/03/21 05:35:55;;;;;;;45.63;29.90;;;8.50;99.90;;;;;;2069670;28;20034;-74
2023/03/21 05:36:58;;;;;;;41.55;28.40;;;8.50;99.90;;;;;;2075199;28;20488;-73
2023/03/21 05:38:04;;;;;;;41.72;27.73;;;8.60;99.90;;;;;;2078082;28;20033;-74
2023/03/21 05:39:10;;;;;;;40.30;27.77;;;8.60;99.90;;;;;;2077311;28;20029;-73
2023/03/21 05:40:16;;;;;;;38.97;27.85;;;8.60;99.90;;;;;;2076263;28;20061;-73
2023/03/21 05:41:20;;;;;;;40.65;26.65;;;8.70;99.90;;;;;;2086209;28;20063;-74